Time;durP1;ratioP1;P1;durP2;ratioP2;P2;SDS_P1;SDS_P2;PMS_P1;PMS_P2;Temp;Humidity;BMP_temperature;BMP_pressure;BME280_temperature;BME280_humidity;BME280_pressure;Samples;Min_cycle;Max_cycle;Signal;HPM_P1;HPM_P2
2023/07/01 00:01:31;;;;;;;5.03;2.70;;;;;;;22.15;51.32;97062.56;5090020;28;20534;-69
2023/07/01 00:03:57;;;;;;;12.53;3.17;;;;;;;22.08;51.65;97060.00;5074748;28;20201;-70
2023/07/01 00:06:22;;;;;;;3.67;3.37;;;;;;;22.07;51.74;97058.38;5090759;28;20651;-69
2023/07/01 00:08:48;;;;;;;3.20;2.60;;;;;;;21.97;51.63;97054.63;5093200;28;20300;-69
2023/07/01 00:11:13;;;;;;;9.20;3.00;;;;;;;21.93;52.01;97054.28;5090817;28;20315;-69
2023/07/01 00:13:39;;;;;;;10.10;6.00;;;;;;;21.93;52.37;97054.28;5093983;28;20562;-68
2023/07/01 00:16:04;;;;;;;6.80;6.10;;;;;;;21.90;52.23;97050.22;5089766;28;20289;-70
2023/07/01 00:18:30;;;;;;;2.90;2.70;;;;;;;21.88;52.31;97054.97;5097403;28;20305;-69
2023/07/01 00:20:55;;;;;;;5.67;3.37;;;;;;;21.85;52.30;97050.09;5091984;28;20196;-68
2023/07/01 00:23:21;;;;;;;5.70;4.60;;;;;;;21.84;52.22;97050.31;5089620;28;20792;-68
2023/07/01 00:25:47;;;;;;;4.77;4.10;;;;;;;21.77;52.61;97045.09;5088971;28;20265;-69
2023/07/01 00:28:12;;;;;;;9.93;7.83;;;;;;;21.74;52.45;97046.34;5094187;28;20213;-69
2023/07/01 00:30:38;;;;;;;4.60;3.03;;;;;;;21.72;52.38;97047.63;5091499;28;20968;-69
2023/07/01 00:33:05;;;;;;;4.20;3.00;;;;;;;21.66;52.82;97045.88;5081274;28;20192;-69
2023/07/01 00:35:31;;;;;;;5.10;4.43;;;;;;;21.61;52.63;97042.03;5089491;28;20189;-68
2023/07/01 00:37:56;;;;;;;9.10;4.83;;;;;;;21.56;52.84;97041.84;5088289;28;20546;-69
2023/07/01 00:40:21;;;;;;;4.93;3.40;;;;;;;21.52;52.61;97046.03;5077182;28;20189;-69
2023/07/01 00:42:47;;;;;;;5.70;3.80;;;;;;;21.43;53.07;97044.69;5087173;28;20213;-68
2023/07/01 00:45:13;;;;;;;6.00;3.70;;;;;;;21.36;53.25;97036.78;5097256;28;20608;-69
2023/07/01 00:47:39;;;;;;;8.07;4.03;;;;;;;21.35;53.39;97039.69;5088497;28;20204;-68
2023/07/01 00:50:09;;;;;;;6.93;5.20;;;;;;;21.28;53.58;97039.78;5081728;28;20209;-69
2023/07/01 00:52:35;;;;;;;12.03;8.60;;;;;;;21.27;53.50;97036.31;5089314;28;20456;-68
2023/07/01 00:55:00;;;;;;;15.37;12.63;;;;;;;21.20;53.67;97037.44;5091285;28;21080;-69
2023/07/01 00:57:26;;;;;;;11.83;9.03;;;;;;;21.18;54.10;97034.97;5094731;28;20221;-68
2023/07/01 00:59:51;;;;;;;7.37;6.40;;;;;;;21.22;53.58;97038.03;5089519;28;20275;-70
2023/07/01 01:02:21;;;;;;;7.47;6.03;;;;;;;21.22;53.83;97032.69;5077173;28;20198;-66
2023/07/01 01:05:01;;;;;;;16.37;14.27;;;;;;;21.23;54.00;97035.13;5091181;28;20797;-70
2023/07/01 01:07:47;;;;;;;15.53;11.13;;;;;;;21.18;53.92;97035.81;5072964;28;20790;-70
2023/07/01 01:10:18;;;;;;;10.07;8.53;;;;;;;21.20;53.82;97034.78;5085074;28;20820;-69
2023/07/01 01:12:43;;;;;;;11.83;10.20;;;;;;;21.18;53.81;97034.97;5069562;28;20432;-69
2023/07/01 01:15:10;;;;;;;5.57;5.07;;;;;;;21.09;54.08;97028.34;5069695;28;20455;-69
2023/07/01 01:17:38;;;;;;;9.90;6.90;;;;;;;21.10;53.46;97032.63;5069724;28;20467;-69
2023/07/01 01:20:13;;;;;;;4.83;3.20;;;;;;;21.01;53.40;97037.44;5069453;28;20452;-70
2023/07/01 01:22:58;;;;;;;8.73;7.40;;;;;;;21.05;53.55;97032.47;5068012;28;20774;-69
2023/07/01 01:25:48;;;;;;;7.40;5.37;;;;;;;21.05;53.43;97035.13;5084164;28;20874;-69
2023/07/01 01:28:14;;;;;;;4.30;3.87;;;;;;;20.99;53.71;97037.69;5068512;28;20908;-69
2023/07/01 01:30:40;;;;;;;5.50;5.00;;;;;;;20.93;53.70;97038.56;5069960;28;20436;-70
2023/07/01 01:33:06;;;;;;;3.77;3.00;;;;;;;20.87;54.29;97026.16;5091359;28;20595;-70
2023/07/01 01:35:31;;;;;;;5.70;4.00;;;;;;;20.81;54.44;97033.19;5093478;28;20220;-69
2023/07/01 01:38:23;;;;;;;5.20;3.20;;;;;;;20.83;54.12;97038.28;5069590;28;20535;-71
2023/07/01 01:40:49;;;;;;;3.43;3.13;;;;;;;20.82;54.27;97031.31;5088504;28;20428;-70
2023/07/01 01:43:20;;;;;;;4.17;3.70;;;;;;;20.73;54.58;97033.44;5093757;28;20435;-69
2023/07/01 01:45:47;;;;;;;5.07;4.17;;;;;;;20.67;54.81;97027.13;5068973;28;20662;-69
2023/07/01 01:48:13;;;;;;;7.63;3.67;;;;;;;20.63;55.43;97023.31;5087471;28;20460;-68
2023/07/01 01:50:39;;;;;;;6.27;5.67;;;;;;;20.67;55.31;97029.81;5072603;28;20467;-69
2023/07/01 01:53:05;;;;;;;7.83;3.27;;;;;;;20.70;55.20;97032.03;5079691;28;20181;-70
2023/07/01 01:55:31;;;;;;;5.57;4.47;;;;;;;20.66;55.25;97025.53;5058416;28;20436;-68
2023/07/01 01:57:58;;;;;;;6.53;5.70;;;;;;;20.63;55.43;97023.31;5088765;28;20192;-69
2023/07/01 02:00:23;;;;;;;7.77;4.30;;;;;;;20.62;55.84;97026.19;5081761;28;20242;-71
2023/07/01 02:02:49;;;;;;;4.43;3.70;;;;;;;20.55;55.47;97026.25;5091298;28;20466;-69
2023/07/01 02:05:14;;;;;;;6.30;5.03;;;;;;;20.48;56.20;97023.66;5092319;28;20196;-69
2023/07/01 02:07:40;;;;;;;5.27;4.70;;;;;;;20.51;56.22;97022.41;5094959;28;20717;-69
2023/07/01 02:10:06;;;;;;;6.03;5.13;;;;;;;20.40;56.40;97024.78;5087334;28;20773;-69
2023/07/01 02:12:32;;;;;;;7.30;5.27;;;;;;;20.44;55.96;97024.31;5092341;28;20228;-70
2023/07/01 02:14:57;;;;;;;5.80;4.37;;;;;;;20.40;56.42;97013.31;5089063;28;20694;-69
2023/07/01 02:17:22;;;;;;;3.60;3.07;;;;;;;20.37;56.86;97006.56;5087246;28;20309;-69
2023/07/01 02:19:48;;;;;;;4.80;3.60;;;;;;;20.33;56.97;97005.38;5086691;28;20218;-69
2023/07/01 02:22:14;;;;;;;5.50;5.00;;;;;;;20.36;56.53;97012.94;5087805;28;20193;-69
2023/07/01 02:24:39;;;;;;;7.83;6.43;;;;;;;20.33;57.09;97007.25;5088876;28;20197;-70
2023/07/01 02:27:05;;;;;;;5.03;3.90;;;;;;;20.34;56.53;97007.00;5094166;28;20178;-69
2023/07/01 02:29:31;;;;;;;8.07;5.70;;;;;;;20.31;56.54;97010.09;5087529;28;20239;-69
2023/07/01 02:31:56;;;;;;;7.90;4.90;;;;;;;20.33;56.67;97002.72;5087278;28;20194;-69
2023/07/01 02:34:28;;;;;;;8.70;5.60;;;;;;;20.29;56.79;97001.53;5082439;28;20300;-68
2023/07/01 02:36:54;;;;;;;10.70;6.53;;;;;;;20.23;56.79;97003.22;5095335;28;20239;-70
2023/07/01 02:39:19;;;;;;;8.00;6.37;;;;;;;20.22;56.74;97006.09;5086986;28;20475;-68
2023/07/01 02:41:45;;;;;;;10.13;6.93;;;;;;;20.23;57.00;97002.41;5076805;28;20435;-69
2023/07/01 02:44:11;;;;;;;5.43;4.93;;;;;;;20.18;57.05;97008.41;5093351;28;20280;-69
2023/07/01 02:46:37;;;;;;;7.77;6.97;;;;;;;20.20;56.98;97013.47;5087406;28;20210;-68
2023/07/01 02:49:03;;;;;;;8.27;5.43;;;;;;;20.19;57.07;97011.84;5086454;28;20451;-69
2023/07/01 02:51:28;;;;;;;8.80;6.80;;;;;;;20.20;57.11;97008.16;5087414;28;20431;-70
2023/07/01 02:53:53;;;;;;;7.80;5.30;;;;;;;20.20;57.17;97005.50;5068969;28;20200;-70
2023/07/01 02:56:19;;;;;;;5.10;4.63;;;;;;;20.13;57.07;97010.09;5087156;28;20236;-68
2023/07/01 02:58:44;;;;;;;12.13;5.53;;;;;;;20.12;57.43;97001.28;5087557;28;20205;-70
2023/07/01 03:01:10;;;;;;;3.40;3.10;;;;;;;20.11;56.70;97010.28;5060060;28;20186;-68
2023/07/01 03:03:36;;;;;;;4.97;4.50;;;;;;;20.04;56.98;97020.97;5069483;28;20189;-69
2023/07/01 03:06:02;;;;;;;6.30;3.43;;;;;;;20.01;57.16;97015.28;5100708;28;20272;-70
2023/07/01 03:08:27;;;;;;;3.63;3.30;;;;;;;20.00;57.45;97017.16;5091720;28;20925;-70
2023/07/01 03:10:53;;;;;;;5.83;3.67;;;;;;;19.99;57.17;97012.03;5088287;28;20472;-69
2023/07/01 03:13:18;;;;;;;4.13;3.73;;;;;;;19.97;57.56;97011.44;5100874;28;20197;-69
2023/07/01 03:15:44;;;;;;;5.13;3.60;;;;;;;19.94;57.50;97010.84;5074885;28;20189;-69
2023/07/01 03:18:09;;;;;;;4.67;4.27;;;;;;;19.91;57.79;97018.47;5087951;28;20553;-69
2023/07/01 03:20:35;;;;;;;5.73;4.60;;;;;;;19.86;58.00;97012.94;5089699;28;20558;-70
2023/07/01 03:23:00;;;;;;;7.23;5.50;;;;;;;19.91;58.04;97016.59;5089845;28;20190;-69
2023/07/01 03:25:26;;;;;;;10.33;4.23;;;;;;;19.94;57.88;97021.50;5090036;28;20193;-69
2023/07/01 03:27:51;;;;;;;5.73;3.40;;;;;;;19.92;57.73;97025.38;5089173;28;20193;-70
2023/07/01 03:30:18;;;;;;;5.50;4.30;;;;;;;19.88;57.46;97021.53;5088554;28;20217;-69
2023/07/01 03:32:45;;;;;;;12.57;5.00;;;;;;;19.90;57.57;97020.28;5090242;28;20276;-69
2023/07/01 03:35:11;;;;;;;7.57;4.77;;;;;;;19.92;57.62;97018.22;5096901;28;20428;-71
2023/07/01 03:37:38;;;;;;;6.10;4.13;;;;;;;19.88;57.74;97018.88;5079897;28;20558;-71
2023/07/01 03:40:04;;;;;;;6.33;4.50;;;;;;;19.87;57.73;97014.59;5094198;28;20459;-69
2023/07/01 03:42:30;;;;;;;4.93;4.47;;;;;;;19.89;57.89;97012.53;5078507;28;20424;-68
2023/07/01 03:44:56;;;;;;;4.90;3.50;;;;;;;19.87;57.75;97015.38;5090601;28;21002;-69
2023/07/01 03:47:22;;;;;;;5.20;4.13;;;;;;;19.88;57.59;97009.03;5097743;28;20420;-68
2023/07/01 03:49:48;;;;;;;4.97;4.47;;;;;;;19.87;57.81;97006.63;5096725;28;20209;-69
2023/07/01 03:52:14;;;;;;;6.00;4.77;;;;;;;19.89;57.70;97010.69;5097636;28;20434;-71
2023/07/01 03:54:39;;;;;;;6.87;5.17;;;;;;;19.90;57.86;97008.84;5089780;28;20189;-69
2023/07/01 03:57:05;;;;;;;4.80;3.17;;;;;;;19.84;58.08;97002.53;5088846;28;20831;-69
2023/07/01 03:59:30;;;;;;;5.73;4.63;;;;;;;19.89;58.25;97004.56;5093379;28;20239;-68
2023/07/01 04:01:56;;;;;;;3.63;3.33;;;;;;;19.82;58.03;97004.56;5089267;28;20283;-69
2023/07/01 04:04:21;;;;;;;3.40;3.10;;;;;;;19.81;58.10;97008.25;5096228;28;20225;-68
2023/07/01 04:06:47;;;;;;;7.50;4.00;;;;;;;19.78;58.07;97008.69;5092723;28;20220;-68
2023/07/01 04:09:12;;;;;;;5.00;3.90;;;;;;;19.80;57.99;97003.97;5089174;28;20262;-68
2023/07/01 04:11:41;;;;;;;5.33;3.43;;;;;;;19.84;57.90;96999.88;5096210;28;20628;-69
2023/07/01 04:14:06;;;;;;;7.10;4.50;;;;;;;19.93;57.71;97003.06;5088746;28;20276;-69
2023/07/01 04:16:32;;;;;;;3.47;3.27;;;;;;;19.91;57.84;97007.81;5091919;28;20528;-68
2023/07/01 04:18:59;;;;;;;4.80;3.00;;;;;;;19.85;58.28;97006.78;5090499;28;20296;-69
2023/07/01 04:21:25;;;;;;;4.33;3.93;;;;;;;19.89;58.31;97007.22;5092804;28;20443;-68
2023/07/01 04:23:50;;;;;;;4.07;3.77;;;;;;;19.92;57.80;97007.59;5102516;28;20423;-69
2023/07/01 04:26:16;;;;;;;5.60;3.80;;;;;;;19.93;57.75;96997.75;5087850;28;20205;-68
2023/07/01 04:28:41;;;;;;;5.43;3.73;;;;;;;19.95;57.57;97001.84;5094022;28;20237;-69
2023/07/01 04:31:07;;;;;;;4.20;3.20;;;;;;;19.99;57.52;97006.72;5087265;28;20296;-69
2023/07/01 04:33:32;;;;;;;5.97;3.47;;;;;;;20.03;57.44;97010.56;5089068;28;20552;-69
2023/07/01 04:35:58;;;;;;;6.00;4.03;;;;;;;20.03;57.47;97002.59;5087917;28;20346;-68
2023/07/01 04:38:23;;;;;;;6.17;4.00;;;;;;;20.05;57.55;97009.31;5089747;28;20210;-67
2023/07/01 04:40:49;;;;;;;4.00;3.57;;;;;;;20.05;57.46;97005.84;5095024;28;20235;-68
2023/07/01 04:43:14;;;;;;;4.93;3.73;;;;;;;20.09;57.73;97007.06;5095196;28;20182;-70
2023/07/01 04:45:43;;;;;;;3.43;3.13;;;;;;;20.07;57.80;97001.94;5092317;28;20181;-68
2023/07/01 04:48:10;;;;;;;4.63;3.40;;;;;;;20.10;57.95;97004.16;5095339;28;20181;-69
2023/07/01 04:50:36;;;;;;;3.70;3.40;;;;;;;20.14;57.66;97006.41;5092888;28;20435;-69
2023/07/01 04:53:01;;;;;;;3.40;2.73;;;;;;;20.13;57.50;96997.59;5087680;28;20795;-67
2023/07/01 04:55:26;;;;;;;3.63;3.33;;;;;;;20.17;57.35;96998.78;5091248;28;20603;-69
2023/07/01 04:57:52;;;;;;;3.43;3.10;;;;;;;20.19;57.51;97001.22;5088033;28;20673;-69
2023/07/01 05:00:18;;;;;;;3.87;3.50;;;;;;;20.14;56.80;96998.41;5086913;28;20587;-68
2023/07/01 05:02:44;;;;;;;5.67;3.37;;;;;;;20.22;57.09;96995.47;5070055;28;20188;-69
2023/07/01 05:05:10;;;;;;;5.80;3.77;;;;;;;20.25;56.72;96997.69;5088223;28;20424;-69
2023/07/01 05:07:35;;;;;;;4.63;3.40;;;;;;;20.33;56.95;96997.41;5089710;28;20724;-69
2023/07/01 05:10:01;;;;;;;3.90;3.30;;;;;;;20.38;56.71;96996.72;5089016;28;20473;-68
2023/07/01 05:12:26;;;;;;;4.53;3.37;;;;;;;20.37;56.25;96998.59;5092921;28;20262;-68
2023/07/01 05:14:53;;;;;;;4.93;3.20;;;;;;;20.41;56.32;96994.44;5082049;28;20197;-68
2023/07/01 05:17:19;;;;;;;7.90;3.70;;;;;;;20.45;56.13;96994.00;5090837;28;20216;-68
2023/07/01 05:19:44;;;;;;;8.03;3.53;;;;;;;20.48;55.88;96998.91;5087412;28;20457;-71
2023/07/01 05:22:10;;;;;;;3.50;3.20;;;;;;;20.48;55.48;96999.69;5096163;28;20213;-69
2023/07/01 05:24:35;;;;;;;5.47;3.60;;;;;;;20.61;55.39;96993.44;5093834;28;20284;-68
2023/07/01 05:27:01;;;;;;;9.03;4.10;;;;;;;20.70;54.62;96994.75;5077034;28;20264;-69
2023/07/01 05:29:28;;;;;;;5.63;3.67;;;;;;;20.79;54.08;96989.19;5087773;28;20227;-70
2023/07/01 05:31:55;;;;;;;3.40;3.10;;;;;;;20.90;53.67;96995.59;5088483;28;20190;-67
2023/07/01 05:34:21;;;;;;;5.73;3.17;;;;;;;20.97;53.71;96993.66;5068490;28;20474;-69
2023/07/01 05:36:47;;;;;;;4.00;3.10;;;;;;;21.06;52.73;96994.16;5088159;28;20459;-69
2023/07/01 05:39:13;;;;;;;4.20;3.10;;;;;;;21.15;52.76;96992.81;5087283;28;20450;-69
2023/07/01 05:41:39;;;;;;;3.77;3.23;;;;;;;21.23;52.35;96989.03;5090657;28;20276;-70
2023/07/01 05:44:04;;;;;;;12.87;3.20;;;;;;;21.31;51.81;96988.72;5092700;28;20507;-69
2023/07/01 05:46:30;;;;;;;4.40;2.80;;;;;;;21.39;51.49;96990.25;5087615;28;20182;-69
2023/07/01 05:48:55;;;;;;;3.20;2.90;;;;;;;21.47;51.55;96989.91;5069957;28;20213;-69
2023/07/01 05:51:21;;;;;;;7.57;3.00;;;;;;;21.58;51.09;96981.13;5098437;28;20261;-68
2023/07/01 05:53:47;;;;;;;4.40;3.17;;;;;;;21.70;50.62;96993.69;5096760;28;20231;-69
2023/07/01 05:56:12;;;;;;;6.13;2.90;;;;;;;21.78;50.18;96985.38;5091075;28;20205;-69
2023/07/01 05:58:38;;;;;;;2.70;2.50;;;;;;;21.86;49.97;96982.38;5087551;28;20205;-69
2023/07/01 06:01:03;;;;;;;4.33;2.60;;;;;;;21.98;49.89;96979.72;5086586;28;20323;-69
2023/07/01 06:03:29;;;;;;;3.43;2.70;;;;;;;22.12;50.34;96982.97;5088101;28;20201;-68
2023/07/01 06:05:54;;;;;;;3.93;2.63;;;;;;;22.25;49.96;96982.72;5087922;28;20316;-68
2023/07/01 06:08:20;;;;;;;9.40;2.90;;;;;;;22.39;49.79;96985.16;5086954;28;20824;-69
2023/07/01 06:10:45;;;;;;;4.90;2.53;;;;;;;22.52;49.09;96989.47;5091123;28;20240;-68
2023/07/01 06:13:10;;;;;;;3.03;2.70;;;;;;;22.63;48.61;96985.97;5087054;28;20221;-70
2023/07/01 06:15:36;;;;;;;2.83;2.53;;;;;;;22.73;48.25;96985.38;5087671;28;20280;-69
2023/07/01 06:18:01;;;;;;;5.37;2.90;;;;;;;22.76;47.25;96984.06;5068203;28;20272;-68
2023/07/01 06:20:27;;;;;;;3.20;2.50;;;;;;;22.86;47.08;96982.44;5091058;28;20215;-68
2023/07/01 06:22:52;;;;;;;3.93;2.40;;;;;;;22.97;46.90;96979.94;5094649;28;20200;-69
2023/07/01 06:25:18;;;;;;;4.70;2.10;;;;;;;23.05;45.65;96982.25;5100061;28;20225;-70
2023/07/01 06:27:43;;;;;;;4.70;2.80;;;;;;;23.09;45.01;96978.03;5088500;28;20239;-69
2023/07/01 06:30:09;;;;;;;4.07;2.60;;;;;;;23.21;45.33;96975.38;5088551;28;20274;-69
2023/07/01 06:32:34;;;;;;;6.43;2.37;;;;;;;23.30;44.53;96967.78;5087578;28;20189;-69
2023/07/01 06:35:00;;;;;;;2.70;2.20;;;;;;;23.42;44.61;96970.38;5086987;28;20219;-69
2023/07/01 06:37:25;;;;;;;7.13;3.00;;;;;;;23.54;44.52;96973.00;5087696;28;20208;-68
2023/07/01 06:39:51;;;;;;;2.77;2.47;;;;;;;23.69;44.46;96969.75;5088686;28;20270;-69
2023/07/01 06:42:16;;;;;;;2.33;2.13;;;;;;;23.67;42.70;96978.03;5096187;28;20745;-69
2023/07/01 06:44:42;;;;;;;2.33;2.07;;;;;;;23.72;42.64;96986.13;5090852;28;20301;-70
2023/07/01 06:47:07;;;;;;;4.03;2.10;;;;;;;23.78;40.98;96979.81;5099039;28;20185;-69
2023/07/01 06:49:33;;;;;;;5.20;2.30;;;;;;;23.89;41.44;96974.63;5091718;28;20570;-69
2023/07/01 06:51:58;;;;;;;6.03;2.03;;;;;;;23.99;41.20;96974.81;5107873;28;20189;-70
2023/07/01 06:54:24;;;;;;;6.27;2.33;;;;;;;24.07;40.95;96974.38;5098458;28;20245;-68
2023/07/01 06:56:49;;;;;;;4.43;2.40;;;;;;;24.20;40.94;96964.41;5090941;28;20212;-69
2023/07/01 06:59:15;;;;;;;4.10;2.03;;;;;;;24.19;40.83;96962.81;5092315;28;20662;-70
2023/07/01 07:01:40;;;;;;;3.53;2.20;;;;;;;24.36;40.79;96965.44;5092163;28;20229;-70
2023/07/01 07:04:06;;;;;;;3.10;2.10;;;;;;;24.46;40.61;96964.75;5090820;28;20253;-70
2023/07/01 07:06:32;;;;;;;2.97;1.87;;;;;;;24.59;39.86;96959.03;5090941;28;20242;-70
2023/07/01 07:08:57;;;;;;;5.13;1.60;;;;;;;24.65;37.92;96960.72;5090946;28;20795;-71
2023/07/01 07:11:22;;;;;;;5.27;1.60;;;;;;;24.61;36.43;96959.59;5094903;28;20649;-69
2023/07/01 07:13:51;;;;;;;5.17;1.90;;;;;;;24.77;37.40;96957.13;5091008;28;20193;-69
2023/07/01 07:16:16;;;;;;;4.53;1.90;;;;;;;24.84;36.95;96953.22;5090343;28;20630;-70
2023/07/01 07:18:42;;;;;;;5.77;2.00;;;;;;;24.92;37.09;96957.31;5090055;28;20533;-70
2023/07/01 07:21:07;;;;;;;2.50;1.87;;;;;;;24.95;37.15;96951.44;5091341;28;20651;-68
2023/07/01 07:23:33;;;;;;;2.03;1.63;;;;;;;25.02;37.75;96956.59;5097915;28;20555;-68
2023/07/01 07:25:58;;;;;;;8.17;1.80;;;;;;;25.03;37.09;96938.66;5101001;28;20326;-69
2023/07/01 07:28:24;;;;;;;2.37;2.00;;;;;;;25.14;36.90;96943.84;5093209;28;20234;-69
2023/07/01 07:30:49;;;;;;;4.33;1.80;;;;;;;25.14;36.70;96946.53;5089466;28;20185;-69
2023/07/01 07:33:14;;;;;;;4.80;1.70;;;;;;;25.39;36.70;96939.00;5090041;28;20612;-69
2023/07/01 07:35:40;;;;;;;3.90;2.07;;;;;;;25.59;36.77;96930.34;5089526;28;20554;-68
2023/07/01 07:38:05;;;;;;;5.40;1.80;;;;;;;25.53;37.06;96932.19;5089856;28;20185;-67
2023/07/01 07:40:31;;;;;;;5.50;2.10;;;;;;;25.60;36.80;96940.81;5074785;28;20201;-68
2023/07/01 07:42:57;;;;;;;9.53;1.83;;;;;;;25.63;36.65;96936.84;5090082;28;20677;-68
2023/07/01 07:45:22;;;;;;;3.20;1.90;;;;;;;25.75;36.95;96937.47;5089921;28;21767;-68
2023/07/01 07:47:48;;;;;;;2.70;2.30;;;;;;;25.64;36.29;96943.00;5097407;28;20181;-68
2023/07/01 07:50:14;;;;;;;3.77;1.83;;;;;;;25.66;35.94;96938.19;5099098;28;20274;-70
2023/07/01 07:52:40;;;;;;;2.87;2.13;;;;;;;25.68;36.49;96934.19;5104548;28;20182;-69
2023/07/01 07:55:06;;;;;;;1.80;1.70;;;;;;;25.82;36.12;96929.19;5095258;28;20547;-68
2023/07/01 07:57:31;;;;;;;3.73;2.20;;;;;;;25.92;36.87;96934.63;5089733;28;20237;-69
2023/07/01 07:59:59;;;;;;;4.23;2.33;;;;;;;26.06;36.43;96931.50;5090245;28;20258;-68
2023/07/01 08:02:24;;;;;;;2.30;2.10;;;;;;;26.14;36.25;96933.72;5090002;28;20608;-68
2023/07/01 08:04:49;;;;;;;7.50;2.20;;;;;;;25.45;37.09;96922.75;5090327;28;20424;-69
2023/07/01 08:07:15;;;;;;;6.30;2.20;;;;;;;25.71;37.10;96925.63;5090430;28;20193;-69
2023/07/01 08:09:41;;;;;;;3.70;2.50;;;;;;;25.92;36.12;96920.38;5094796;28;20208;-70
2023/07/01 08:12:07;;;;;;;3.60;2.23;;;;;;;26.06;36.43;96931.50;5092249;28;20189;-69
2023/07/01 08:14:32;;;;;;;2.37;2.00;;;;;;;25.83;36.03;96925.47;5094137;28;20185;-69
2023/07/01 08:16:59;;;;;;;5.03;1.90;;;;;;;25.53;36.08;96921.47;5090212;28;20482;-70
2023/07/01 08:19:24;;;;;;;3.40;2.10;;;;;;;25.66;36.00;96928.25;5089754;28;20665;-70
2023/07/01 08:21:50;;;;;;;1.97;1.87;;;;;;;25.68;36.08;96928.03;5100047;28;20506;-70
2023/07/01 08:24:15;;;;;;;3.90;2.10;;;;;;;25.57;35.99;96921.75;5096617;28;20275;-70
2023/07/01 08:26:41;;;;;;;2.90;2.23;;;;;;;25.59;36.31;96925.78;5070702;28;20188;-71
2023/07/01 08:29:09;;;;;;;2.63;1.97;;;;;;;25.73;35.89;96911.94;5093633;28;20202;-68
2023/07/01 08:31:34;;;;;;;7.47;2.10;;;;;;;25.91;36.11;96916.91;5093960;28;20193;-69
2023/07/01 08:34:00;;;;;;;2.60;1.97;;;;;;;26.11;36.24;96904.69;5092588;28;20514;-70
2023/07/01 08:36:26;;;;;;;6.73;2.23;;;;;;;26.09;36.19;96906.78;5091430;28;20217;-68
2023/07/01 08:38:51;;;;;;;4.33;1.83;;;;;;;26.05;35.99;96911.09;5091945;28;20583;-69
2023/07/01 08:41:18;;;;;;;2.93;1.70;;;;;;;26.07;36.18;96898.22;5091060;28;20435;-69
2023/07/01 08:43:47;;;;;;;4.20;2.13;;;;;;;26.00;36.68;96894.94;5094117;28;20208;-69
2023/07/01 08:46:15;;;;;;;2.90;2.10;;;;;;;26.12;36.53;96898.25;5066543;28;20785;-71
2023/07/01 08:48:41;;;;;;;2.70;2.00;;;;;;;26.29;35.70;96900.75;5075694;28;20438;-70
2023/07/01 08:51:12;;;;;;;6.17;3.20;;;;;;;26.43;35.01;96898.41;5093266;28;20445;-68
2023/07/01 08:53:39;;;;;;;3.87;2.40;;;;;;;26.67;34.39;96900.66;5084570;28;20442;-69
2023/07/01 08:56:04;;;;;;;2.47;2.27;;;;;;;26.81;33.75;96896.44;5082061;28;20952;-69
2023/07/01 08:58:30;;;;;;;3.00;1.83;;;;;;;26.98;33.37;96885.44;5062435;28;20448;-70
2023/07/01 09:00:56;;;;;;;2.63;2.10;;;;;;;27.11;32.75;96886.78;5088911;28;20190;-69
2023/07/01 09:03:22;;;;;;;9.87;2.37;;;;;;;27.11;32.97;96867.16;5070698;28;20802;-69
2023/07/01 09:05:48;;;;;;;2.93;2.10;;;;;;;27.21;33.07;96880.63;5070725;28;20465;-68
2023/07/01 09:08:13;;;;;;;11.83;3.60;;;;;;;27.19;32.60;96871.22;5088050;28;20234;-69
2023/07/01 09:10:39;;;;;;;4.17;1.87;;;;;;;27.23;31.94;96867.72;5092309;28;20190;-70
2023/07/01 09:13:13;;;;;;;4.87;1.80;;;;;;;27.09;31.32;96863.94;5089856;28;20588;-69
2023/07/01 09:15:46;;;;;;;4.73;1.80;;;;;;;27.40;32.32;96880.09;5086483;28;20868;-69
2023/07/01 09:18:23;;;;;;;3.53;1.63;;;;;;;27.48;31.04;96866.13;5087534;28;20432;-68
2023/07/01 09:20:51;;;;;;;1.87;1.60;;;;;;;27.66;30.76;96874.75;5089951;28;20464;-69
2023/07/01 09:23:38;;;;;;;2.40;1.53;;;;;;;27.86;30.32;96876.56;5090643;28;20499;-68
2023/07/01 09:26:06;;;;;;;8.10;2.47;;;;;;;27.79;30.50;96871.47;5084588;28;20436;-69
2023/07/01 09:28:32;;;;;;;2.90;1.83;;;;;;;28.07;29.43;96860.38;5091706;28;20984;-69
2023/07/01 09:31:03;;;;;;;2.10;1.63;;;;;;;27.93;29.46;96855.56;5087878;28;20534;-69
2023/07/01 09:33:29;;;;;;;2.83;1.70;;;;;;;28.06;29.34;96854.16;5088007;28;20197;-68
2023/07/01 09:36:01;;;;;;;4.47;1.67;;;;;;;27.55;29.31;96852.41;5087653;28;20485;-69
2023/07/01 09:38:33;;;;;;;4.00;1.90;;;;;;;27.04;29.76;96851.31;5096418;28;20427;-69
2023/07/01 09:41:17;;;;;;;4.17;1.50;;;;;;;27.21;29.62;96844.88;5087930;28;21154;-69
2023/07/01 09:43:42;;;;;;;2.60;1.57;;;;;;;27.64;29.38;96853.47;5088048;28;20423;-69
2023/07/01 09:46:08;;;;;;;2.63;1.53;;;;;;;27.93;28.69;96850.19;5088553;28;20431;-68
2023/07/01 09:48:34;;;;;;;6.53;2.03;;;;;;;28.08;28.16;96838.53;5072554;28;20616;-67
2023/07/01 09:51:01;;;;;;;2.70;1.53;;;;;;;27.85;28.15;96838.09;5093035;28;20185;-69
2023/07/01 09:53:30;;;;;;;2.70;2.20;;;;;;;28.04;27.92;96838.28;5089188;28;20189;-69
2023/07/01 09:55:56;;;;;;;4.17;1.80;;;;;;;28.00;28.17;96839.91;5093742;28;20431;-72
2023/07/01 09:58:22;;;;;;;5.20;1.60;;;;;;;28.12;27.44;96831.56;5095573;28;20797;-69
2023/07/01 10:00:48;;;;;;;4.43;1.70;;;;;;;28.14;27.19;96833.97;5089168;28;20462;-68
2023/07/01 10:03:14;;;;;;;3.40;2.10;;;;;;;27.95;27.08;96831.88;5087785;28;20194;-68
2023/07/01 10:05:39;;;;;;;3.13;1.60;;;;;;;28.22;27.58;96832.59;5088445;28;20217;-70
2023/07/01 10:08:05;;;;;;;6.67;1.70;;;;;;;28.20;27.19;96827.50;5069766;28;20238;-68
2023/07/01 10:10:31;;;;;;;6.97;1.97;;;;;;;28.18;27.59;96827.75;5093644;28;20212;-68
2023/07/01 10:12:58;;;;;;;5.17;2.20;;;;;;;28.02;27.27;96835.06;5095349;28;20480;-70
2023/07/01 10:15:26;;;;;;;3.57;1.90;;;;;;;27.87;27.57;96819.78;5093328;28;20181;-68
2023/07/01 10:17:54;;;;;;;2.33;1.80;;;;;;;28.12;27.68;96828.06;5093717;28;20967;-69
2023/07/01 10:20:33;;;;;;;2.17;1.57;;;;;;;28.26;27.29;96826.38;5100909;28;20462;-70
2023/07/01 10:23:00;;;;;;;7.27;2.00;;;;;;;28.30;27.70;96816.69;5092076;28;20428;-71
2023/07/01 10:25:30;;;;;;;2.83;1.80;;;;;;;28.67;27.44;96798.41;5097582;28;20488;-71
2023/07/01 10:27:59;;;;;;;3.07;2.07;;;;;;;28.88;26.59;96815.28;5094020;28;20835;-70
2023/07/01 10:30:25;;;;;;;5.17;2.03;;;;;;;29.00;25.35;96811.41;5094138;28;20702;-66
2023/07/01 10:32:51;;;;;;;5.10;1.97;;;;;;;29.02;26.01;96809.25;5098999;28;20519;-71
2023/07/01 10:35:16;;;;;;;3.43;1.97;;;;;;;29.26;26.15;96809.34;5092879;28;20836;-71
2023/07/01 10:38:19;;;;;;;2.77;1.83;;;;;;;29.28;25.65;96813.34;5101067;28;20220;-70
2023/07/01 10:40:45;;;;;;;3.37;2.50;;;;;;;29.19;25.62;96806.97;5094322;28;20291;-70
2023/07/01 10:43:22;;;;;;;5.63;2.00;;;;;;;29.23;25.51;96809.88;5094196;28;20463;-70
2023/07/01 10:46:03;;;;;;;5.33;2.37;;;;;;;29.26;25.14;96807.44;5090694;28;20573;-69
2023/07/01 10:48:28;;;;;;;7.13;2.17;;;;;;;29.07;25.61;96801.13;5093149;28;20423;-69
2023/07/01 10:51:04;;;;;;;3.40;2.50;;;;;;;29.05;25.34;96798.69;5099034;28;20446;-69
2023/07/01 10:53:30;;;;;;;3.37;2.33;;;;;;;29.02;24.96;96799.28;5093133;28;20219;-68
2023/07/01 10:56:11;;;;;;;3.87;2.60;;;;;;;29.22;25.64;96792.91;5097872;28;20432;-69
2023/07/01 10:58:37;;;;;;;6.87;3.13;;;;;;;29.03;25.59;96789.28;5090694;28;20612;-69
2023/07/01 11:01:03;;;;;;;7.00;2.40;;;;;;;29.20;26.00;96800.47;5072992;28;20522;-69
2023/07/01 11:03:35;;;;;;;2.90;2.27;;;;;;;29.03;25.87;96783.88;5090971;28;20822;-68
2023/07/01 11:06:05;;;;;;;6.73;2.77;;;;;;;29.04;25.65;96785.50;5091468;28;20424;-70
2023/07/01 11:08:33;;;;;;;6.13;2.40;;;;;;;28.81;25.84;96777.06;5098778;28;20437;-68
2023/07/01 11:10:58;;;;;;;2.93;2.63;;;;;;;28.74;25.94;96776.56;5097066;28;20431;-70
2023/07/01 11:13:25;;;;;;;5.37;2.53;;;;;;;28.53;25.99;96773.19;5073857;28;20431;-69
2023/07/01 11:16:05;;;;;;;3.50;2.60;;;;;;;28.36;26.61;96768.97;5097822;28;20193;-69
2023/07/01 11:18:44;;;;;;;2.77;2.50;;;;;;;28.17;26.95;96774.19;5089085;28;21007;-69
2023/07/01 11:21:11;;;;;;;2.90;2.70;;;;;;;28.19;27.05;96766.63;5091383;28;20809;-69
2023/07/01 11:23:54;;;;;;;4.67;2.57;;;;;;;28.38;27.45;96757.91;5094076;28;20419;-70
2023/07/01 11:26:21;;;;;;;3.33;2.50;;;;;;;28.52;27.50;96756.19;5092697;28;20432;-69
2023/07/01 11:28:46;;;;;;;4.70;2.63;;;;;;;28.56;27.61;96748.34;5096351;28;21175;-70
2023/07/01 11:31:21;;;;;;;4.40;3.00;;;;;;;28.75;27.58;96762.00;5090430;28;20450;-69